Darby, MT

8:18 AM MST on November 26, 2014 (GMT -0700)
Missoula International | Change Station
CLOSE
Current Station
Airport
Location: Missoula,
Elevation: 3189 ft
Nearby Weather Stations
Active Advisory: Winter Weather Advisory Active Notice: Record Report

Elev 3189 ft 46.92 °N, 114.09 °W | Updated 25 minutes ago

Rain
Rain
31 °F
Feels Like 28 °F
N
4
Wind Variable Wind from SE

Today
High -- | Low -- °F
--% Chance of Precip.
Yesterday
High -- | Low -- °F
Precip. -- in
7:52 AM 4:55 PM
Waxing Crescent, 20% visible
Pressure 30.25 in
Visibility 3.0 miles
Clouds Scattered Clouds 400 ft
Overcast 4300 ft
Windchill 28 °F
Dew Point 31 °F
Humidity 100%
Rainfall 0.20 in
Snow Depth Not available.
UV 0 out of 12
Pollen .10 out of 12
Air Quality Not available.
Flu Activity Not available.
METAR KMSO 261453Z 14003KT 3SM UP BR SCT004 OVC043 M01/M01 A3016 RMK AO2 UPB10SNE10 SLP241 P0002 60003 T10061006 53004

More Conditions Fewer Conditions

Pressure 30.25 in
Visibility 3.0 miles
Clouds Scattered Clouds 400 ft
Overcast 4300 ft
Windchill 28 °F
Dew Point 31 °F
Humidity 100%
Rainfall 0.20 in
Snow Depth Not available.
UV 0 out of 12
Pollen .10 out of 12
Air Quality Not available.
Flu Activity Not available.
METAR KMSO 261453Z 14003KT 3SM UP BR SCT004 OVC043 M01/M01 A3016 RMK AO2 UPB10SNE10 SLP241 P0002 60003 T10061006 53004

More Conditions Fewer Conditions

10-Day Weather Forecast

Almanac

Astronomy

Nov. 26, 2014 Rise Set
Actual Time
Civil Twilight
Nautical Twilight
Astronomical Twilight
Moon
Length of Visible Light
Length of Day
Tomorrow will be .
, % of the Moon is Illuminated

Today's Extremes

State Highs State Lows

Community

WunderPhotos

Upload Photos

1,773,771 photos uploaded!

WunderBlogs® & News

Nearby

Air Quality

  Air Quality AQ Index Pollutant
Not available.

Snow Depth

Station Depth Elevation

Earthquake Activity

City Distance Mag. Time & Date
Minimum magnitude displayed is 2.5.

Coastal Water Temperatures

Place Temperature

Nearby Weather Stations